createdAt,value
2023-03-08T00:00:57.760Z,1.36
2023-03-08T00:03:25.494Z,1.37
2023-03-08T00:05:53.252Z,1.48
2023-03-08T00:08:22.324Z,1.45
2023-03-08T00:10:49.959Z,1.54
2023-03-08T00:13:17.654Z,1.44
2023-03-08T00:15:45.409Z,1.57
2023-03-08T00:18:13.266Z,1.35
2023-03-08T00:20:40.965Z,1.31
2023-03-08T00:23:09.910Z,1.26
2023-03-08T00:25:38.971Z,1.25
2023-03-08T00:28:06.633Z,1.41
2023-03-08T00:30:34.277Z,1.51
2023-03-08T00:33:02.002Z,1.17
2023-03-08T00:35:29.671Z,1.25
2023-03-08T00:37:57.316Z,1.26
2023-03-08T00:40:25.030Z,1.21
2023-03-08T00:42:54.048Z,1.18
2023-03-08T00:45:21.744Z,1.08
2023-03-08T00:47:49.428Z,1.15
2023-03-08T00:50:17.542Z,1.26
2023-03-08T00:52:45.193Z,1.20
2023-03-08T00:55:12.891Z,0.93
2023-03-08T00:57:40.526Z,0.88
2023-03-08T01:00:12.912Z,1.10
2023-03-08T01:02:41.319Z,1.23
2023-03-08T01:05:10.253Z,1.06
2023-03-08T01:07:37.952Z,1.16
2023-03-08T01:10:06.236Z,1.18
2023-03-08T01:12:34.089Z,1.18
2023-03-08T01:15:01.878Z,1.02
2023-03-08T01:17:30.915Z,1.01
2023-03-08T01:19:58.862Z,1.14
2023-03-08T01:22:26.575Z,1.08
2023-03-08T01:24:54.289Z,1.06
2023-03-08T01:27:21.961Z,1.08
2023-03-08T01:29:49.648Z,1.10
2023-03-08T01:32:17.378Z,0.98
2023-03-08T01:34:46.434Z,1.02
2023-03-08T01:37:14.148Z,0.99
2023-03-08T01:39:41.819Z,1.04
2023-03-08T01:42:09.724Z,1.09
2023-03-08T01:44:53.386Z,1.13
2023-03-08T01:47:22.435Z,1.13
2023-03-08T01:49:52.168Z,1.09
2023-03-08T01:52:22.089Z,1.07
2023-03-08T01:54:51.155Z,0.99
2023-03-08T01:57:22.215Z,0.94
2023-03-08T01:59:51.174Z,0.97
2023-03-08T02:02:20.172Z,0.97
2023-03-08T02:04:47.809Z,0.92
2023-03-08T02:07:17.035Z,0.75
2023-03-08T02:09:45.243Z,0.80
2023-03-08T02:12:14.214Z,0.82
2023-03-08T02:14:42.729Z,0.90
2023-03-08T02:17:10.587Z,0.93
2023-03-08T02:19:44.399Z,0.87
2023-03-08T02:22:12.768Z,0.82
2023-03-08T02:24:41.834Z,0.88
2023-03-08T02:27:13.933Z,0.78
2023-03-08T02:29:42.155Z,0.94
2023-03-08T02:32:10.146Z,1.03
2023-03-08T02:34:37.939Z,0.91
2023-03-08T02:37:05.639Z,0.98
2023-03-08T02:39:33.292Z,0.86
2023-03-08T02:42:02.306Z,0.92
2023-03-08T02:44:29.915Z,0.84
2023-03-08T02:46:57.573Z,0.95
2023-03-08T02:49:25.329Z,1.01
2023-03-08T02:51:53.086Z,1.11
2023-03-08T02:54:20.783Z,1.15
2023-03-08T02:56:48.477Z,1.16
2023-03-08T02:59:17.484Z,1.08
2023-03-08T03:01:45.231Z,1.06
2023-03-08T03:04:12.933Z,1.09
2023-03-08T03:06:40.644Z,1.02
2023-03-08T03:09:09.083Z,0.96
2023-03-08T03:11:36.932Z,0.85
2023-03-08T03:14:04.617Z,0.98
2023-03-08T03:16:33.998Z,0.97
2023-03-08T03:19:01.803Z,0.96
2023-03-08T03:21:29.784Z,0.87
2023-03-08T03:23:57.589Z,0.73
2023-03-08T03:26:27.410Z,0.85
2023-03-08T03:28:57.526Z,0.92
2023-03-08T03:31:25.659Z,0.92
2023-03-08T03:33:54.996Z,0.87
2023-03-08T03:36:23.305Z,0.80
2023-03-08T03:38:51.329Z,0.70
2023-03-08T03:41:21.123Z,0.87
2023-03-08T03:43:49.287Z,0.98
2023-03-08T03:46:18.548Z,0.86
2023-03-08T03:48:46.582Z,0.95
2023-03-08T03:51:17.461Z,0.95
2023-03-08T03:53:45.337Z,0.99
2023-03-08T03:56:14.797Z,0.98
2023-03-08T03:58:42.754Z,0.78
2023-03-08T04:01:11.287Z,0.81
2023-03-08T04:03:39.113Z,0.82
2023-03-08T04:06:08.575Z,0.70
2023-03-08T04:08:42.086Z,0.80
2023-03-08T04:11:10.240Z,0.76
2023-03-08T04:13:38.247Z,0.66
2023-03-08T04:16:12.497Z,0.66
2023-03-08T04:18:40.291Z,0.44
2023-03-08T04:21:08.245Z,0.48
2023-03-08T04:23:37.519Z,0.64
2023-03-08T04:26:05.834Z,0.64
2023-03-08T04:28:34.119Z,0.51
2023-03-08T04:31:02.415Z,0.49
2023-03-08T04:33:30.076Z,0.70
2023-03-08T04:35:57.806Z,0.71
2023-03-08T04:38:25.492Z,0.75
2023-03-08T04:41:05.441Z,0.72
2023-03-08T04:43:33.848Z,0.83
2023-03-08T04:46:02.417Z,0.84
2023-03-08T04:48:30.212Z,0.79
2023-03-08T04:50:59.460Z,0.92
2023-03-08T04:53:27.938Z,0.98
2023-03-08T04:55:57.143Z,1.19
2023-03-08T04:58:24.820Z,1.17
2023-03-08T05:00:52.617Z,1.05
2023-03-08T05:03:20.303Z,1.12
2023-03-08T05:05:48.579Z,1.16
2023-03-08T05:08:16.280Z,1.20
2023-03-08T05:10:48.288Z,1.13
2023-03-08T05:13:17.605Z,1.10
2023-03-08T05:15:45.275Z,1.07
2023-03-08T05:18:13.181Z,1.17
2023-03-08T05:20:40.892Z,1.24
2023-03-08T05:23:08.556Z,1.21
2023-03-08T05:25:36.191Z,1.11
2023-03-08T05:28:03.812Z,1.09
2023-03-08T05:30:32.860Z,1.25
2023-03-08T05:33:00.498Z,1.18
2023-03-08T05:35:28.201Z,1.22
2023-03-08T05:37:55.814Z,1.07
2023-03-08T05:40:23.457Z,1.24
2023-03-08T05:42:51.148Z,1.30
2023-03-08T05:45:18.914Z,1.12
2023-03-08T05:47:47.992Z,1.43
2023-03-08T05:50:15.635Z,1.53
2023-03-08T05:52:43.547Z,1.40
2023-03-08T05:55:11.393Z,1.59
2023-03-08T05:57:39.347Z,1.62
2023-03-08T06:00:08.268Z,1.68
2023-03-08T06:02:35.974Z,1.59
2023-03-08T06:05:05.588Z,1.65
2023-03-08T06:08:40.337Z,1.61
2023-03-08T06:11:08.220Z,1.55
2023-03-08T06:13:36.970Z,1.54
2023-03-08T06:16:06.099Z,1.67
2023-03-08T06:18:34.566Z,1.74
2023-03-08T06:21:03.929Z,1.80
2023-03-08T06:23:32.715Z,1.86
2023-03-08T06:26:02.007Z,1.88
2023-03-08T06:28:30.181Z,1.80
2023-03-08T06:30:58.312Z,1.75
2023-03-08T06:33:27.926Z,1.83
2023-03-08T06:35:59.373Z,1.92
2023-03-08T06:38:29.740Z,1.89
2023-03-08T06:40:58.324Z,2.01
2023-03-08T06:43:27.778Z,2.10
2023-03-08T06:45:55.805Z,2.15
2023-03-08T06:48:23.952Z,2.21
2023-03-08T06:50:51.834Z,2.28
2023-03-08T06:53:19.478Z,2.22
2023-03-08T06:55:47.131Z,2.18
2023-03-08T06:58:14.895Z,2.17
2023-03-08T07:00:43.965Z,2.24
2023-03-08T07:03:12.440Z,2.36
2023-03-08T07:05:40.405Z,2.37
2023-03-08T07:08:08.601Z,2.39
2023-03-08T07:10:36.262Z,2.49
2023-03-08T07:13:04.002Z,2.63
2023-03-08T07:15:31.788Z,2.69
2023-03-08T07:18:00.861Z,2.66
2023-03-08T07:20:28.670Z,2.73
2023-03-08T07:22:57.100Z,2.71
2023-03-08T07:25:24.786Z,2.84
2023-03-08T07:27:52.439Z,2.97
2023-03-08T07:30:20.462Z,3.04
2023-03-08T07:32:48.335Z,3.06
2023-03-08T07:35:17.613Z,3.03
2023-03-08T07:37:46.544Z,3.05
2023-03-08T07:40:16.271Z,2.98
2023-03-08T07:42:44.116Z,3.05
2023-03-08T07:45:12.835Z,2.95
2023-03-08T07:47:40.672Z,3.04
2023-03-08T07:50:09.402Z,3.00
2023-03-08T07:52:38.463Z,3.28
2023-03-08T07:55:07.370Z,2.00
2023-03-08T07:57:35.106Z,2.15
2023-03-08T08:00:07.339Z,2.19
2023-03-08T08:02:35.091Z,2.50
2023-03-08T08:05:04.032Z,1.86
2023-03-08T08:07:32.218Z,2.16
2023-03-08T08:10:01.271Z,2.55
2023-03-08T08:12:28.957Z,2.90
2023-03-08T08:14:56.690Z,2.95
2023-03-08T08:17:24.328Z,2.71
2023-03-08T08:19:52.084Z,2.91
2023-03-08T08:22:19.696Z,3.18
2023-03-08T08:24:47.380Z,3.43
2023-03-08T08:27:16.409Z,3.66
2023-03-08T08:29:46.150Z,3.44
2023-03-08T08:32:14.074Z,3.45
2023-03-08T08:34:41.745Z,3.19
2023-03-08T08:37:09.367Z,3.50
2023-03-08T08:39:37.085Z,3.57
2023-03-08T08:42:05.039Z,3.13
2023-03-08T08:44:34.085Z,3.14
2023-03-08T08:47:01.739Z,3.39
2023-03-08T08:49:29.421Z,3.66
2023-03-08T08:51:57.139Z,3.77
2023-03-08T08:54:24.879Z,4.09
2023-03-08T08:56:52.535Z,4.38
2023-03-08T08:59:20.219Z,4.13
2023-03-08T09:01:49.221Z,4.28
2023-03-08T09:04:17.808Z,3.68
2023-03-08T09:06:45.608Z,3.46
2023-03-08T09:09:13.276Z,4.08
2023-03-08T09:11:53.838Z,4.22
2023-03-08T09:14:22.339Z,4.37
2023-03-08T09:16:52.564Z,4.40
2023-03-08T09:19:20.579Z,3.77
2023-03-08T09:21:48.485Z,3.59
2023-03-08T09:24:16.713Z,3.06
2023-03-08T09:26:44.457Z,2.85
2023-03-08T09:29:12.855Z,3.32
2023-03-08T09:31:42.400Z,3.66
2023-03-08T09:34:14.755Z,3.04
2023-03-08T09:36:43.037Z,3.57
2023-03-08T09:39:13.130Z,3.85
2023-03-08T09:41:52.563Z,4.36
2023-03-08T09:44:53.184Z,4.75
2023-03-08T09:47:30.146Z,4.57
2023-03-08T09:50:05.915Z,4.33
2023-03-08T09:52:38.332Z,4.26
2023-03-08T09:55:10.493Z,4.36
2023-03-08T09:57:43.284Z,4.12
2023-03-08T10:00:20.841Z,4.39
2023-03-08T10:02:54.539Z,3.83
2023-03-08T10:05:24.826Z,3.78
2023-03-08T10:07:58.107Z,4.21
2023-03-08T10:10:44.792Z,4.12
2023-03-08T10:13:29.155Z,3.89
2023-03-08T10:16:03.897Z,3.69
2023-03-08T10:18:34.852Z,4.09
2023-03-08T10:21:04.592Z,4.90
2023-03-08T10:23:33.672Z,4.36
2023-03-08T10:26:02.873Z,5.08
2023-03-08T10:28:30.587Z,4.60
2023-03-08T10:30:59.601Z,5.13
2023-03-08T10:33:32.693Z,5.56
2023-03-08T10:36:04.599Z,5.18
2023-03-08T10:38:34.196Z,5.89
2023-03-08T10:41:03.477Z,5.50
2023-03-08T10:43:33.827Z,5.54
2023-03-08T10:46:02.964Z,4.63
2023-03-08T10:48:30.751Z,4.84
2023-03-08T10:51:00.593Z,4.64
2023-03-08T10:53:30.395Z,5.39
2023-03-08T10:55:59.750Z,5.34
2023-03-08T10:58:35.958Z,4.97
2023-03-08T11:01:06.248Z,4.98
2023-03-08T11:03:34.620Z,4.34
2023-03-08T11:06:04.110Z,3.90
2023-03-08T11:08:34.818Z,4.97
2023-03-08T11:11:08.402Z,4.12
2023-03-08T11:13:37.997Z,5.88
2023-03-08T11:16:14.493Z,6.51
2023-03-08T11:18:51.561Z,6.03
2023-03-08T11:21:26.578Z,5.26
2023-03-08T11:24:01.521Z,5.44
2023-03-08T11:26:36.579Z,5.54
2023-03-08T11:29:14.748Z,5.61
2023-03-08T11:31:47.313Z,4.80
2023-03-08T11:34:38.679Z,5.16
2023-03-08T11:37:12.320Z,5.28
2023-03-08T11:39:46.367Z,5.70
2023-03-08T11:42:19.720Z,5.25
2023-03-08T11:45:09.939Z,5.99
2023-03-08T11:48:02.386Z,5.95
2023-03-08T11:50:32.852Z,5.53
2023-03-08T11:53:11.838Z,5.71
2023-03-08T11:55:59.086Z,6.32
2023-03-08T11:58:29.740Z,6.16
2023-03-08T12:01:01.442Z,5.61
2023-03-08T12:03:33.014Z,5.26
2023-03-08T12:06:02.958Z,5.53
2023-03-08T12:08:33.767Z,5.83
2023-03-08T12:11:05.700Z,6.90
2023-03-08T12:13:35.397Z,7.47
2023-03-08T12:16:10.163Z,7.83
2023-03-08T12:18:41.705Z,7.32
2023-03-08T12:21:17.864Z,7.71
2023-03-08T12:23:50.869Z,8.12
2023-03-08T12:26:23.205Z,7.50
2023-03-08T12:28:54.585Z,8.17
2023-03-08T12:31:28.347Z,8.13
2023-03-08T12:33:58.183Z,8.24
2023-03-08T12:36:37.630Z,7.76
2023-03-08T12:39:10.181Z,8.05
2023-03-08T12:41:39.392Z,8.07
2023-03-08T12:44:08.541Z,7.45
2023-03-08T12:47:00.277Z,7.37
2023-03-08T12:49:33.493Z,7.70
2023-03-08T12:52:03.840Z,7.24
2023-03-08T12:54:33.897Z,7.76
2023-03-08T12:57:04.055Z,6.02
2023-03-08T12:59:37.207Z,6.56
2023-03-08T13:02:26.060Z,6.84
2023-03-08T13:05:04.811Z,7.18
2023-03-08T13:07:37.056Z,7.59
2023-03-08T13:10:09.768Z,7.57
2023-03-08T13:13:03.112Z,7.78
2023-03-08T13:15:30.848Z,7.26
2023-03-08T13:18:06.033Z,7.22
2023-03-08T13:20:50.642Z,7.80
2023-03-08T13:23:26.561Z,7.11
2023-03-08T13:26:08.197Z,7.31
2023-03-08T13:28:47.232Z,7.77
2023-03-08T13:31:18.452Z,8.14
2023-03-08T13:33:48.363Z,7.84
2023-03-08T13:36:20.186Z,7.84
2023-03-08T13:38:58.150Z,7.73
2023-03-08T13:41:33.708Z,7.22
2023-03-08T13:44:03.803Z,7.33
2023-03-08T13:46:31.646Z,7.16
2023-03-08T13:48:59.444Z,7.67
2023-03-08T13:51:29.071Z,7.67
2023-03-08T13:53:57.413Z,7.10
2023-03-08T13:56:27.569Z,6.20
2023-03-08T13:58:56.909Z,6.71
2023-03-08T14:01:27.506Z,5.81
2023-03-08T14:03:58.363Z,6.19
2023-03-08T14:06:29.878Z,6.14
2023-03-08T14:09:00.482Z,6.12
2023-03-08T14:11:30.515Z,5.65
2023-03-08T14:13:59.567Z,6.04
2023-03-08T14:16:31.550Z,5.36
2023-03-08T14:18:59.852Z,5.87
2023-03-08T14:21:29.365Z,5.20
2023-03-08T14:23:58.847Z,5.79
2023-03-08T14:26:34.852Z,5.42
2023-03-08T14:29:21.760Z,5.45
2023-03-08T14:31:55.997Z,5.79
2023-03-08T14:34:25.536Z,5.88
2023-03-08T14:36:56.544Z,6.58
2023-03-08T14:39:25.859Z,6.44
2023-03-08T14:41:53.917Z,6.11
2023-03-08T14:44:22.986Z,5.87
2023-03-08T14:46:58.163Z,5.86
2023-03-08T14:49:29.372Z,5.63
2023-03-08T14:51:57.500Z,5.96
2023-03-08T14:54:32.805Z,5.82
2023-03-08T14:57:03.820Z,5.44
2023-03-08T14:59:31.552Z,5.01
2023-03-08T15:01:59.327Z,4.44
2023-03-08T15:04:28.428Z,4.55
2023-03-08T15:06:56.141Z,4.32
2023-03-08T15:09:26.254Z,4.04
2023-03-08T15:11:57.103Z,4.28
2023-03-08T15:14:24.809Z,4.63
2023-03-08T15:16:55.066Z,4.91
2023-03-08T15:19:22.709Z,4.25
2023-03-08T15:21:51.739Z,4.87
2023-03-08T15:24:19.756Z,4.92
2023-03-08T15:26:47.672Z,4.78
2023-03-08T15:29:25.505Z,5.33
2023-03-08T15:31:53.311Z,5.27
2023-03-08T15:34:21.198Z,5.45
2023-03-08T15:36:49.911Z,5.59
2023-03-08T15:39:19.411Z,5.72
2023-03-08T15:41:47.271Z,5.61
2023-03-08T15:44:14.963Z,5.73
2023-03-08T15:46:42.938Z,5.09
2023-03-08T15:49:11.124Z,5.63
2023-03-08T15:51:39.442Z,5.29
2023-03-08T15:54:07.697Z,5.43
2023-03-08T15:56:36.781Z,5.17
2023-03-08T15:59:04.473Z,4.87
2023-03-08T16:01:33.215Z,4.99
2023-03-08T16:04:01.031Z,5.05
2023-03-08T16:06:28.788Z,5.53
2023-03-08T16:08:57.596Z,5.23
2023-03-08T16:11:25.468Z,5.35
2023-03-08T16:13:54.589Z,5.43
2023-03-08T16:16:27.638Z,5.55
2023-03-08T16:18:59.923Z,5.95
2023-03-08T16:21:27.625Z,5.81
2023-03-08T16:23:55.328Z,5.93
2023-03-08T16:26:24.168Z,5.52
2023-03-08T16:28:51.845Z,5.96
2023-03-08T16:31:21.766Z,6.00
2023-03-08T16:33:49.724Z,5.89
2023-03-08T16:36:17.368Z,5.64
2023-03-08T16:38:45.081Z,5.61
2023-03-08T16:41:14.219Z,5.81
2023-03-08T16:43:49.822Z,5.91
2023-03-08T16:46:21.374Z,5.74
2023-03-08T16:48:49.905Z,5.68
2023-03-08T16:51:18.704Z,5.23
2023-03-08T16:53:46.453Z,5.08
2023-03-08T16:56:18.592Z,4.76
2023-03-08T16:58:46.389Z,5.05
2023-03-08T17:01:14.612Z,4.82
2023-03-08T17:03:43.665Z,5.26
2023-03-08T17:06:13.342Z,4.74
2023-03-08T17:08:41.149Z,4.84
2023-03-08T17:11:15.449Z,4.58
2023-03-08T17:13:43.256Z,4.41
2023-03-08T17:16:12.871Z,4.44
2023-03-08T17:18:40.674Z,4.47
2023-03-08T17:21:09.774Z,4.77
2023-03-08T17:23:37.587Z,4.95
2023-03-08T17:26:06.421Z,4.63
2023-03-08T17:28:35.014Z,4.54
2023-03-08T17:31:03.281Z,4.72
2023-03-08T17:33:31.030Z,4.72
2023-03-08T17:36:00.018Z,4.55
2023-03-08T17:38:29.609Z,4.01
2023-03-08T17:40:57.310Z,4.13
2023-03-08T17:43:25.049Z,4.21
2023-03-08T17:45:59.670Z,4.36
2023-03-08T17:48:27.408Z,4.32
2023-03-08T17:50:55.379Z,4.07
2023-03-08T17:53:23.039Z,4.10
2023-03-08T17:55:52.178Z,4.20
2023-03-08T17:58:22.339Z,4.27
2023-03-08T18:00:51.675Z,4.00
2023-03-08T18:03:19.428Z,4.12
2023-03-08T18:05:48.941Z,4.21
2023-03-08T18:08:16.638Z,4.34
2023-03-08T18:10:44.707Z,4.16
2023-03-08T18:13:13.766Z,4.26
2023-03-08T18:15:41.541Z,4.28
2023-03-08T18:18:09.178Z,4.25
2023-03-08T18:20:36.862Z,4.32
2023-03-08T18:23:07.016Z,4.43
2023-03-08T18:25:35.180Z,4.39
2023-03-08T18:28:03.132Z,4.04
2023-03-08T18:30:32.212Z,4.21
2023-03-08T18:32:59.839Z,4.17
2023-03-08T18:35:27.597Z,3.97
2023-03-08T18:37:55.294Z,3.83
2023-03-08T18:40:23.214Z,3.80
2023-03-08T18:42:50.928Z,3.80
2023-03-08T18:45:18.932Z,3.72
2023-03-08T18:47:50.638Z,3.74
2023-03-08T18:50:19.407Z,4.04
2023-03-08T18:52:47.228Z,4.22
2023-03-08T18:55:15.122Z,3.95
2023-03-08T18:57:42.789Z,4.07
2023-03-08T19:00:12.046Z,3.41
2023-03-08T19:02:39.827Z,3.42
2023-03-08T19:05:09.839Z,3.87
2023-03-08T19:07:37.541Z,3.30
2023-03-08T19:10:06.591Z,3.47
2023-03-08T19:12:37.291Z,3.62
2023-03-08T19:15:05.746Z,3.69
2023-03-08T19:17:33.497Z,3.68
2023-03-08T19:20:01.146Z,3.53
2023-03-08T19:22:30.223Z,3.92
2023-03-08T19:24:58.002Z,3.55
2023-03-08T19:27:25.769Z,3.75
2023-03-08T19:29:53.405Z,3.32
2023-03-08T19:32:21.139Z,3.48
2023-03-08T19:34:49.172Z,3.33
2023-03-08T19:37:16.928Z,3.40
2023-03-08T19:39:47.498Z,3.38
2023-03-08T19:42:16.781Z,3.34
2023-03-08T19:44:48.253Z,3.15
2023-03-08T19:47:16.679Z,3.19
2023-03-08T19:49:44.439Z,3.28
2023-03-08T19:52:13.982Z,3.27
2023-03-08T19:54:42.930Z,3.09
2023-03-08T19:57:12.507Z,3.41
2023-03-08T19:59:40.266Z,3.44
2023-03-08T20:02:10.029Z,2.81
2023-03-08T20:04:37.732Z,2.95
2023-03-08T20:07:05.867Z,2.84
2023-03-08T20:09:33.592Z,2.69
2023-03-08T20:12:01.311Z,2.82
2023-03-08T20:14:30.514Z,2.92
2023-03-08T20:16:59.227Z,2.87
2023-03-08T20:19:27.106Z,2.94
2023-03-08T20:21:54.833Z,3.16
2023-03-08T20:24:24.136Z,2.95
2023-03-08T20:26:52.264Z,2.78
2023-03-08T20:29:20.628Z,2.52
2023-03-08T20:31:50.100Z,2.83
2023-03-08T20:34:18.344Z,2.79
2023-03-08T20:36:47.464Z,3.25
2023-03-08T20:39:15.240Z,2.53
2023-03-08T20:41:42.947Z,2.97
2023-03-08T20:44:12.032Z,2.72
2023-03-08T20:46:39.776Z,2.74
2023-03-08T20:49:11.075Z,2.99
2023-03-08T20:51:38.788Z,3.00
2023-03-08T20:54:06.589Z,2.83
2023-03-08T20:56:34.260Z,2.54
2023-03-08T20:59:02.380Z,2.85
2023-03-08T21:01:31.926Z,2.86
2023-03-08T21:03:59.656Z,3.07
2023-03-08T21:06:30.142Z,3.04
2023-03-08T21:08:59.112Z,3.01
2023-03-08T21:11:26.853Z,2.87
2023-03-08T21:13:55.433Z,2.97
2023-03-08T21:16:25.293Z,2.63
2023-03-08T21:18:53.758Z,3.08
2023-03-08T21:21:24.244Z,2.93
2023-03-08T21:23:54.375Z,3.06
2023-03-08T21:26:22.302Z,2.66
2023-03-08T21:28:49.949Z,2.98
2023-03-08T21:31:19.949Z,2.75
2023-03-08T21:33:47.675Z,2.69
2023-03-08T21:36:15.556Z,2.54
2023-03-08T21:38:43.323Z,2.40
2023-03-08T21:41:18.764Z,2.29
2023-03-08T21:43:46.423Z,2.47
2023-03-08T21:46:14.202Z,2.54
2023-03-08T21:48:42.177Z,2.39
2023-03-08T21:51:11.084Z,2.68
2023-03-08T21:53:39.415Z,2.68
2023-03-08T21:56:08.232Z,2.65
2023-03-08T21:58:37.697Z,2.57
2023-03-08T22:01:06.394Z,2.54
2023-03-08T22:03:35.900Z,2.61
2023-03-08T22:06:03.588Z,2.25
2023-03-08T22:08:31.313Z,2.41
2023-03-08T22:10:59.037Z,2.36
2023-03-08T22:13:26.771Z,2.12
2023-03-08T22:15:56.242Z,2.05
2023-03-08T22:18:24.043Z,2.40
2023-03-08T22:20:51.758Z,2.44
2023-03-08T22:23:19.459Z,2.04
2023-03-08T22:25:47.275Z,2.38
2023-03-08T22:28:15.044Z,1.92
2023-03-08T22:30:42.776Z,2.18
2023-03-08T22:33:12.113Z,2.09
2023-03-08T22:35:39.893Z,2.04
2023-03-08T22:38:07.568Z,2.34
2023-03-08T22:40:38.301Z,2.20
2023-03-08T22:43:06.025Z,2.36
2023-03-08T22:45:34.564Z,1.99
2023-03-08T22:48:02.907Z,1.81
2023-03-08T22:50:32.104Z,1.79
2023-03-08T22:52:59.772Z,1.76
2023-03-08T22:55:27.471Z,1.90
2023-03-08T22:57:55.103Z,1.73
2023-03-08T23:00:22.876Z,2.06
2023-03-08T23:02:50.959Z,1.72
2023-03-08T23:05:20.644Z,1.92
2023-03-08T23:07:49.652Z,1.82
2023-03-08T23:10:18.133Z,1.79
2023-03-08T23:12:45.765Z,1.69
2023-03-08T23:15:13.677Z,1.69
2023-03-08T23:17:41.352Z,1.70
2023-03-08T23:21:23.746Z,1.71
2023-03-08T23:23:51.512Z,1.63
2023-03-08T23:26:23.868Z,1.50
2023-03-08T23:28:51.532Z,1.48
2023-03-08T23:31:20.832Z,1.65
2023-03-08T23:33:49.447Z,1.54
2023-03-08T23:36:19.967Z,1.47
2023-03-08T23:38:49.267Z,1.54
2023-03-08T23:41:17.991Z,1.36
2023-03-08T23:43:45.884Z,1.54
2023-03-08T23:46:15.190Z,1.30
2023-03-08T23:48:43.708Z,1.42
2023-03-08T23:51:14.194Z,1.69
2023-03-08T23:53:42.288Z,1.45
2023-03-08T23:56:18.598Z,1.72
2023-03-08T23:58:47.955Z,1.48
